Time;durP1;ratioP1;P1;durP2;ratioP2;P2;SDS_P1;SDS_P2;PMS_P1;PMS_P2;Temp;Humidity;BMP_temperature;BMP_pressure;BME280_temperature;BME280_humidity;BME280_pressure;Samples;Min_cycle;Max_cycle;Signal;HPM_P1;HPM_P2
2022/04/04 00:01:23;;;;;;;4.07;3.30;;;;;;;1.80;86.00;101974.25;5053725;28;20033;-35
2022/04/04 00:03:48;;;;;;;4.00;2.70;;;;;;;1.79;86.25;101985.09;5052804;28;20036;-35
2022/04/04 00:06:14;;;;;;;3.57;2.90;;;;;;;1.72;86.11;101968.84;5054160;28;20060;-35
2022/04/04 00:08:40;;;;;;;4.33;2.77;;;;;;;1.74;86.23;101969.53;5054333;28;20029;-35
2022/04/04 00:11:06;;;;;;;4.95;2.75;;;;;;;1.72;86.61;101955.50;5054114;28;20029;-35
2022/04/04 00:13:32;;;;;;;;;;;;;;;1.82;85.56;101960.81;5054905;28;20037;-35
2022/04/04 00:15:57;;;;;;;4.80;2.75;;;;;;;1.74;85.91;101958.84;5054566;28;20304;-35
2022/04/04 00:18:22;;;;;;;3.20;2.90;;;;;;;1.73;85.80;101962.50;5053946;28;20485;-35
2022/04/04 00:20:50;;;;;;;5.03;3.17;;;;;;;1.69;86.03;101949.59;5053808;28;20034;-35
2022/04/04 00:23:16;;;;;;;4.25;3.08;;;;;;;1.69;86.46;101947.78;5053569;28;20053;-35
2022/04/04 00:25:42;;;;;;;;;;;;;;;1.75;85.68;101944.53;5054611;28;20025;-35
2022/04/04 00:28:07;;;;;;;4.80;3.13;;;;;;;1.69;86.20;101937.13;5053667;28;20314;-35
2022/04/04 00:30:33;;;;;;;5.32;3.30;;;;;;;1.68;85.95;101937.28;5054632;28;20070;-35
2022/04/04 00:32:59;;;;;;;4.17;3.40;;;;;;;1.59;85.81;101924.81;5053463;28;20401;-35
2022/04/04 00:35:24;;;;;;;4.70;3.47;;;;;;;1.58;86.25;101928.47;5053645;28;20035;-35
2022/04/04 00:37:51;;;;;;;7.07;3.93;;;;;;;1.61;86.32;101923.69;5053576;28;20072;-35
2022/04/04 00:40:17;;;;;;;4.82;3.92;;;;;;;1.57;86.08;101927.63;5053310;28;20295;-35
2022/04/04 00:42:42;;;;;;;4.63;3.83;;;;;;;1.60;86.32;101918.50;5053886;28;20088;-35
2022/04/04 00:45:08;;;;;;;5.17;4.20;;;;;;;1.59;86.31;101924.81;5053799;28;20021;-35
2022/04/04 00:47:33;;;;;;;5.50;4.10;;;;;;;1.55;86.72;101916.25;5053877;28;20032;-35
2022/04/04 00:49:59;;;;;;;5.67;3.97;;;;;;;1.58;86.41;101910.66;5053370;28;20056;-35
2022/04/04 00:52:24;;;;;;;4.70;3.80;;;;;;;1.53;86.06;101905.75;5053120;28;20400;-35
2022/04/04 00:54:49;;;;;;;5.37;4.47;;;;;;;1.55;86.24;101901.09;5053628;28;20490;-33
2022/04/04 00:57:16;;;;;;;5.97;4.17;;;;;;;1.51;86.41;101898.88;5053722;28;20036;-34
2022/04/04 00:59:43;;;;;;;8.20;4.70;;;;;;;1.36;86.90;101884.34;5053970;28;20442;-34
2022/04/04 01:02:08;;;;;;;6.10;4.47;;;;;;;1.38;87.24;101899.22;5053719;28;20331;-34
2022/04/04 01:04:34;;;;;;;6.60;4.30;;;;;;;1.36;87.69;101892.34;5053429;28;20035;-34
2022/04/04 01:07:01;;;;;;;4.97;4.43;;;;;;;1.33;87.56;101887.31;5053073;28;20057;-34
2022/04/04 01:09:26;;;;;;;8.32;4.68;;;;;;;1.29;87.34;101879.59;5053485;28;20041;-33
2022/04/04 01:12:08;;;;;;;6.53;5.10;;;;;;;1.25;87.26;101872.88;5053288;28;20465;-34
2022/04/04 01:14:39;;;;;;;6.93;4.65;;;;;;;1.31;87.46;101883.94;5053251;28;20060;-34
2022/04/04 01:17:05;;;;;;;6.55;4.53;;;;;;;1.29;86.90;101874.25;5052429;28;20033;-34
2022/04/04 01:19:30;;;;;;;7.25;4.85;;;;;;;1.28;87.01;101871.75;5053151;28;20036;-34
2022/04/04 01:21:56;;;;;;;7.97;5.00;;;;;;;1.28;87.21;101869.09;5052983;28;20029;-34
2022/04/04 01:24:22;;;;;;;6.50;4.63;;;;;;;1.29;87.23;101865.44;5053085;28;20272;-34
2022/04/04 01:26:48;;;;;;;;;;;;;;;1.35;86.90;101854.19;5053689;28;20036;-34
2022/04/04 01:29:13;;;;;;;5.80;4.20;;;;;;;1.31;86.59;101843.97;5053212;28;19912;-34
2022/04/04 01:31:39;;;;;;;5.68;4.47;;;;;;;1.18;87.03;101837.16;5052499;28;20115;-34
2022/04/04 01:34:04;;;;;;;5.53;4.70;;;;;;;1.26;86.99;101841.72;5052617;28;20029;-34
2022/04/04 01:36:30;;;;;;;6.90;4.90;;;;;;;1.17;87.32;101832.81;5052950;28;20031;-34
2022/04/04 01:38:55;;;;;;;7.70;4.53;;;;;;;1.12;86.80;101826.22;5052541;28;20032;-34
2022/04/04 01:41:20;;;;;;;6.37;5.13;;;;;;;1.13;86.69;101810.09;5051130;28;20052;-34
2022/04/04 01:43:46;;;;;;;6.27;4.50;;;;;;;1.10;87.00;101807.72;5052642;28;20098;-34
2022/04/04 01:46:29;;;;;;;7.17;4.80;;;;;;;1.13;86.52;101812.75;5052341;28;20056;-34
2022/04/04 01:48:58;;;;;;;5.90;4.70;;;;;;;1.13;86.62;101810.09;5052699;28;20692;-34
2022/04/04 01:51:24;;;;;;;7.50;4.80;;;;;;;1.18;86.70;101807.84;5052731;28;20190;-34
2022/04/04 01:53:50;;;;;;;5.72;5.00;;;;;;;1.11;86.65;101789.91;5052037;28;20564;-34
2022/04/04 01:56:16;;;;;;;5.97;4.25;;;;;;;1.14;86.97;101797.63;5053115;28;20029;-34
2022/04/04 01:58:42;;;;;;;6.80;5.30;;;;;;;1.11;87.04;101796.06;5052278;28;20029;-34
2022/04/04 02:01:11;;;;;;;6.45;4.28;;;;;;;1.12;86.44;101791.56;5052495;28;20457;-33
2022/04/04 02:03:37;;;;;;;8.07;4.60;;;;;;;1.13;86.40;101782.63;5052350;28;20029;-33
2022/04/04 02:06:03;;;;;;;6.15;5.00;;;;;;;1.09;86.55;101774.06;5052395;28;20112;-34
2022/04/04 02:08:30;;;;;;;5.15;4.55;;;;;;;1.08;86.19;101779.56;5052241;28;20451;-34
2022/04/04 02:10:55;;;;;;;;;;;;;;;1.15;86.18;101764.66;5052660;28;20108;-34
2022/04/04 02:13:23;;;;;;;6.13;4.60;;;;;;;1.07;86.28;101765.38;5052261;28;19959;-34
2022/04/04 02:15:50;;;;;;;6.10;5.03;;;;;;;1.07;86.91;101761.88;5051558;28;20124;-35
2022/04/04 02:18:15;;;;;;;5.82;4.38;;;;;;;1.03;85.86;101738.22;5052785;28;20104;-34
2022/04/04 02:20:40;;;;;;;6.73;4.93;;;;;;;1.07;85.93;101751.22;5051926;28;20541;-34
2022/04/04 02:23:06;;;;;;;7.40;5.03;;;;;;;1.00;86.50;101740.31;5051985;28;20087;-34
2022/04/04 02:25:31;;;;;;;8.23;5.43;;;;;;;1.12;86.06;101749.78;5052608;28;20021;-34
2022/04/04 02:27:56;;;;;;;6.80;5.17;;;;;;;1.12;86.21;101733.81;5052598;28;20025;-34
2022/04/04 02:30:22;;;;;;;6.20;4.93;;;;;;;1.13;86.32;101735.50;5072050;28;20166;-34
2022/04/04 02:32:47;;;;;;;7.27;5.20;;;;;;;1.14;86.48;101737.19;5056328;28;20057;-35
2022/04/04 02:35:12;;;;;;;6.00;4.33;;;;;;;1.14;85.49;101725.69;5056133;28;20044;-34
2022/04/04 02:37:38;;;;;;;8.13;5.30;;;;;;;1.19;85.60;101723.41;5055955;28;20373;-34
2022/04/04 02:40:05;;;;;;;6.43;5.07;;;;;;;1.19;85.65;101723.41;5056037;28;20033;-34
2022/04/04 02:42:31;;;;;;;5.05;4.55;;;;;;;1.27;85.79;101721.69;5056138;28;20424;-34
2022/04/04 02:44:56;;;;;;;7.32;4.82;;;;;;;1.26;85.70;101706.66;5055856;28;20163;-34
2022/04/04 02:47:22;;;;;;;6.30;4.47;;;;;;;1.29;85.96;101703.72;5056271;28;20056;-34
2022/04/04 02:49:47;;;;;;;6.67;4.27;;;;;;;1.17;85.96;101664.97;5056006;28;20025;-34
2022/04/04 02:52:12;;;;;;;5.83;4.37;;;;;;;1.35;86.05;101691.63;5055998;28;20044;-34
2022/04/04 02:54:38;;;;;;;6.30;4.67;;;;;;;1.31;85.56;101679.56;5056127;28;20037;-34
2022/04/04 02:57:04;;;;;;;6.93;4.72;;;;;;;1.26;85.67;101665.88;5055617;28;20500;-34
2022/04/04 02:59:29;;;;;;;6.00;4.55;;;;;;;1.36;86.58;101676.47;5055348;28;20025;-34
2022/04/04 03:01:54;;;;;;;6.17;4.47;;;;;;;1.39;85.66;101668.19;5055287;28;20028;-34
2022/04/04 03:04:20;;;;;;;6.00;4.67;;;;;;;1.40;85.72;101661.84;5055249;28;20047;-33
2022/04/04 03:06:45;;;;;;;7.67;4.60;;;;;;;1.40;86.62;101667.19;5055423;28;20025;-34
2022/04/04 03:09:11;;;;;;;5.13;4.20;;;;;;;1.20;86.10;101623.84;5054828;28;20507;-34
2022/04/04 03:11:37;;;;;;;7.60;5.00;;;;;;;1.40;86.47;101648.53;5055341;28;20025;-34
2022/04/04 03:14:03;;;;;;;5.82;4.63;;;;;;;1.41;86.66;101643.03;5055054;28;20397;-34
2022/04/04 03:16:28;;;;;;;5.18;4.43;;;;;;;1.36;86.48;101636.47;5055599;28;20033;-34
2022/04/04 03:18:54;;;;;;;6.20;4.50;;;;;;;1.46;86.71;101639.91;5054125;28;20087;-34
2022/04/04 03:21:20;;;;;;;5.50;4.40;;;;;;;1.44;86.71;101620.59;5054706;28;20032;-34
2022/04/04 03:23:46;;;;;;;5.20;4.30;;;;;;;1.46;86.85;101623.91;5054643;28;20116;-34
2022/04/04 03:26:12;;;;;;;5.07;4.13;;;;;;;1.48;86.50;101627.28;5055276;28;20208;-34
2022/04/04 03:28:38;;;;;;;5.93;4.25;;;;;;;1.50;87.46;101622.63;5054812;28;20447;-34
2022/04/04 03:31:06;;;;;;;;;;;;;;;1.52;87.22;101618.84;5055959;28;20057;-34
2022/04/04 03:33:33;;;;;;;4.88;3.63;;;;;;;1.49;87.49;101612.97;5054757;28;19909;-34
2022/04/04 03:35:59;;;;;;;6.32;4.00;;;;;;;1.57;86.81;101610.38;5055167;28;20082;-34
2022/04/04 03:38:25;;;;;;;7.25;4.63;;;;;;;1.58;87.38;101609.38;5054300;28;20025;-34
2022/04/04 03:40:52;;;;;;;6.18;4.30;;;;;;;1.54;87.61;101600.00;5054784;28;20032;-34
2022/04/04 03:43:17;;;;;;;8.48;4.30;;;;;;;1.63;86.81;101596.44;5053512;28;20439;-34
2022/04/04 03:45:43;;;;;;;5.05;3.72;;;;;;;1.65;86.98;101585.59;5054872;28;20044;-34
2022/04/04 03:48:08;;;;;;;4.80;4.20;;;;;;;1.66;87.09;101585.47;5054387;28;20481;-34
2022/04/04 03:50:35;;;;;;;4.22;3.83;;;;;;;1.72;87.30;101582.19;5054917;28;20128;-34
2022/04/04 03:53:00;;;;;;;;;;;;;;;1.75;86.95;101581.84;5054694;28;20115;-34
2022/04/04 03:55:32;;;;;;;5.22;3.95;;;;;;;1.74;86.81;101572.19;5053975;28;19960;-34
2022/04/04 03:57:59;;;;;;;4.93;4.35;;;;;;;1.66;87.38;101561.47;5054426;28;20021;-34
2022/04/04 04:00:25;;;;;;;4.75;3.75;;;;;;;1.59;87.18;101541.75;5054158;28;20032;-35
2022/04/04 04:02:52;;;;;;;5.10;3.90;;;;;;;1.77;86.96;101558.53;5053965;28;20029;-35
2022/04/04 04:05:17;;;;;;;;;;;;;;;1.80;86.83;101562.72;5055137;28;20027;-35
2022/04/04 04:07:43;;;;;;;4.87;4.37;;;;;;;1.77;87.55;101550.53;5054290;28;20015;-35
2022/04/04 04:10:12;;;;;;;5.93;4.20;;;;;;;1.84;87.74;101552.56;5054483;28;20104;-34
2022/04/04 04:12:41;;;;;;;6.88;4.30;;;;;;;1.85;87.61;101544.41;5054073;28;20040;-35
2022/04/04 04:15:09;;;;;;;8.68;5.03;;;;;;;1.80;87.83;101525.38;5053933;28;20033;-35
2022/04/04 04:17:34;;;;;;;6.90;4.53;;;;;;;1.82;87.84;101517.25;5054347;28;20024;-35
2022/04/04 04:22:45;;;;;;;6.90;4.80;;;;;;;1.94;87.23;101527.47;5053534;28;20147;-35
2022/04/04 04:25:11;;;;;;;5.40;4.57;;;;;;;1.96;87.36;101519.31;5053974;28;20573;-35
2022/04/04 04:27:36;;;;;;;6.30;4.40;;;;;;;1.92;87.60;101502.78;5053467;28;20111;-35
2022/04/04 04:30:03;;;;;;;7.73;5.00;;;;;;;1.95;87.50;101497.16;5053741;28;20298;-35
2022/04/04 04:32:29;;;;;;;7.43;4.38;;;;;;;2.04;87.45;101495.34;5053577;28;20036;-35
2022/04/04 04:34:55;;;;;;;6.47;4.38;;;;;;;2.08;87.03;101495.88;5053788;28;20386;-35
2022/04/04 04:37:21;;;;;;;6.28;4.68;;;;;;;2.04;87.08;101482.00;5053525;28;20083;-35
2022/04/04 04:39:47;;;;;;;7.38;4.95;;;;;;;2.14;86.88;101490.72;5053756;28;20087;-35
2022/04/04 04:42:12;;;;;;;7.63;4.65;;;;;;;2.08;87.37;101467.34;5053492;28;20366;-35
2022/04/04 04:44:38;;;;;;;7.27;4.90;;;;;;;2.20;86.71;101473.25;5053419;28;20029;-35
2022/04/04 04:47:04;;;;;;;6.40;4.93;;;;;;;2.21;87.16;101474.91;5053853;28;20043;-35
2022/04/04 04:49:31;;;;;;;6.53;4.63;;;;;;;2.26;86.36;101468.09;5051998;28;20365;-35
2022/04/04 04:51:57;;;;;;;7.55;4.75;;;;;;;2.29;86.20;101465.13;5052796;28;20045;-35
2022/04/04 04:54:22;;;;;;;5.30;4.27;;;;;;;2.21;86.57;101448.25;5053741;28;20037;-35
2022/04/04 04:56:47;;;;;;;7.67;5.23;;;;;;;2.28;86.99;101455.41;5053770;28;20021;-35
2022/04/04 04:59:13;;;;;;;8.00;5.10;;;;;;;2.35;86.51;101449.47;5053115;28;20028;-35
2022/04/04 05:01:40;;;;;;;6.10;4.57;;;;;;;2.19;86.60;101419.03;5053368;28;20025;-35
2022/04/04 05:04:05;;;;;;;8.30;5.05;;;;;;;2.38;86.63;101435.75;5068262;28;20119;-35
2022/04/04 05:06:31;;;;;;;6.17;4.87;;;;;;;2.44;86.46;101438.63;5053502;28;20052;-35
2022/04/04 05:08:59;;;;;;;5.80;4.72;;;;;;;2.49;86.67;101432.78;5053236;28;20032;-35
2022/04/04 05:11:25;;;;;;;5.97;4.53;;;;;;;2.51;86.02;101433.47;5053759;28;20441;-35
2022/04/04 05:13:50;;;;;;;7.30;5.00;;;;;;;2.53;86.40;101426.13;5052070;28;20037;-35
2022/04/04 05:16:16;;;;;;;5.40;4.10;;;;;;;2.56;86.44;101420.47;5053314;28;20029;-35
2022/04/04 05:18:43;;;;;;;9.65;5.60;;;;;;;2.56;86.61;101404.44;5052724;28;20130;-35
2022/04/04 05:21:09;;;;;;;6.90;4.90;;;;;;;2.59;86.21;101398.78;5052941;28;20076;-35
2022/04/04 05:23:34;;;;;;;;;;;;;;;2.64;85.96;101400.97;5053354;28;20116;-35
2022/04/04 05:26:00;;;;;;;8.00;5.25;;;;;;;2.63;85.93;101380.56;5052755;28;19952;-35
2022/04/04 05:28:25;;;;;;;6.07;4.77;;;;;;;2.62;86.01;101393.09;5052585;28;20024;-35
2022/04/04 05:30:50;;;;;;;9.87;5.90;;;;;;;2.64;86.55;101379.59;5053147;28;20063;-35
2022/04/04 05:33:16;;;;;;;6.70;5.00;;;;;;;2.64;86.94;101375.09;5053281;28;20025;-35
2022/04/04 05:35:41;;;;;;;10.93;5.60;;;;;;;2.62;86.90;101370.91;5053280;28;20047;-35
2022/04/04 05:38:06;;;;;;;8.77;5.80;;;;;;;2.70;86.47;101369.06;5052511;28;20029;-35
2022/04/04 05:40:32;;;;;;;8.40;6.17;;;;;;;2.62;86.88;101350.38;5052751;28;20374;-35
2022/04/04 05:42:57;;;;;;;7.30;4.97;;;;;;;2.69;86.58;101362.06;5052357;28;20068;-35
2022/04/04 05:45:23;;;;;;;8.07;5.90;;;;;;;2.77;86.90;101361.22;5052683;28;20029;-35
2022/04/04 05:47:49;;;;;;;;;;;;;;;2.80;86.52;101342.19;5053333;28;20040;-35
2022/04/04 05:50:14;;;;;;;6.05;4.85;;;;;;;2.81;86.95;101339.34;5053342;28;19913;-35
2022/04/04 05:52:42;;;;;;;7.87;5.77;;;;;;;2.76;86.97;101332.84;5052615;28;20091;-35
2022/04/04 05:55:08;;;;;;;7.38;5.28;;;;;;;2.89;87.66;101330.50;5052645;28;20431;-35
2022/04/04 05:57:36;;;;;;;6.85;5.03;;;;;;;2.93;86.53;101341.66;5052552;28;20119;-35
2022/04/04 06:00:08;;;;;;;7.85;6.22;;;;;;;2.86;86.97;101327.34;5052810;28;20036;-35
2022/04/04 06:02:36;;;;;;;7.97;5.65;;;;;;;2.96;86.02;101330.66;5053363;28;20155;-35
2022/04/04 06:05:01;;;;;;;8.45;5.85;;;;;;;2.99;85.91;101320.47;5056652;28;20100;-35
2022/04/04 06:07:27;;;;;;;7.10;5.50;;;;;;;2.96;86.11;101317.28;5056607;28;20029;-35
2022/04/04 06:09:52;;;;;;;7.70;5.27;;;;;;;3.09;85.22;101321.13;5057008;28;20368;-35
2022/04/04 06:12:17;;;;;;;5.93;5.23;;;;;;;3.14;85.08;101315.25;5057332;28;20037;-35
2022/04/04 06:14:43;;;;;;;6.20;5.47;;;;;;;3.22;85.20;101303.69;5056401;28;20493;-35
2022/04/04 06:17:08;;;;;;;7.23;5.43;;;;;;;3.28;83.53;101309.22;5056707;28;20408;-35
2022/04/04 06:19:34;;;;;;;7.10;4.90;;;;;;;3.41;82.07;101307.81;5056730;28;20051;-35
2022/04/04 06:22:04;;;;;;;7.18;5.15;;;;;;;3.35;81.36;101285.28;5056246;28;20025;-35
2022/04/04 06:24:31;;;;;;;7.43;5.45;;;;;;;3.62;81.18;101294.72;5056367;28;20037;-35
2022/04/04 06:27:00;;;;;;;7.82;5.55;;;;;;;3.59;81.16;101287.03;5056284;28;20031;-35
2022/04/04 06:29:27;;;;;;;8.07;5.22;;;;;;;3.73;80.94;101296.16;5056289;28;20029;-35
2022/04/04 06:31:52;;;;;;;6.90;4.97;;;;;;;3.79;80.48;101296.28;5056242;28;20577;-35
2022/04/04 06:34:19;;;;;;;10.43;5.95;;;;;;;3.83;80.63;101294.09;5055788;28;20116;-35
2022/04/04 06:36:46;;;;;;;6.97;5.25;;;;;;;3.87;80.01;101290.91;5055896;28;20033;-35
2022/04/04 06:39:12;;;;;;;5.63;4.68;;;;;;;3.82;80.83;101269.19;5055782;28;20037;-35
2022/04/04 06:41:37;;;;;;;6.93;5.10;;;;;;;3.89;79.61;101263.94;5055463;28;20040;-35
2022/04/04 06:44:04;;;;;;;9.53;5.40;;;;;;;3.95;79.70;101257.06;5055566;28;20037;-35
2022/04/04 06:46:29;;;;;;;8.57;6.18;;;;;;;3.99;79.67;101266.41;5056279;28;20052;-35
2022/04/04 06:48:55;;;;;;;5.77;5.17;;;;;;;4.00;79.76;101257.34;5056167;28;20090;-35
2022/04/04 06:51:20;;;;;;;8.40;5.47;;;;;;;4.01;79.59;101254.53;5055744;28;20728;-35
2022/04/04 06:53:46;;;;;;;7.00;5.10;;;;;;;4.01;80.05;101249.16;5055590;28;20033;-35
2022/04/04 06:56:12;;;;;;;5.78;4.88;;;;;;;3.96;80.32;101240.03;5055906;28;20032;-35
2022/04/04 06:58:38;;;;;;;7.95;4.97;;;;;;;4.04;79.57;101239.94;5055452;28;20037;-35
2022/04/04 07:01:03;;;;;;;6.35;5.00;;;;;;;4.09;79.44;101229.53;5056262;28;20064;-35
2022/04/04 07:03:29;;;;;;;7.10;5.25;;;;;;;4.13;78.86;101228.16;5055881;28;20029;-35
2022/04/04 07:05:54;;;;;;;7.03;5.10;;;;;;;4.19;79.33;101234.63;5056141;28;20025;-35
2022/04/04 07:08:21;;;;;;;7.73;5.07;;;;;;;4.16;79.17;101214.44;5055339;28;20503;-35
2022/04/04 07:10:47;;;;;;;6.63;5.18;;;;;;;4.26;78.23;101223.03;5055787;28;20404;-35
2022/04/04 07:13:13;;;;;;;6.93;5.10;;;;;;;4.30;78.66;101212.81;5055367;28;20120;-35
2022/04/04 07:15:41;;;;;;;9.23;5.22;;;;;;;4.33;78.94;101223.16;5055608;28;20441;-34
2022/04/04 07:18:07;;;;;;;6.40;5.07;;;;;;;4.37;78.31;101203.84;5055249;28;20067;-34
2022/04/04 07:20:32;;;;;;;;;;;;;;;4.42;78.01;101203.31;5055641;28;20059;-34
2022/04/04 07:22:59;;;;;;;5.85;4.55;;;;;;;4.45;78.60;101200.28;5055613;28;19912;-34
2022/04/04 07:25:24;;;;;;;6.22;5.07;;;;;;;4.52;78.17;101206.56;5055507;28;20110;-34
2022/04/04 07:27:50;;;;;;;6.67;5.33;;;;;;;4.54;78.38;101188.47;5055230;28;20120;-35
2022/04/04 07:30:17;;;;;;;7.55;5.00;;;;;;;4.58;78.31;101168.31;5055435;28;20029;-35
2022/04/04 07:32:44;;;;;;;6.25;4.82;;;;;;;4.60;77.61;101189.59;5054849;28;20029;-34
2022/04/04 07:35:11;;;;;;;7.03;5.13;;;;;;;4.64;78.45;101172.16;5053978;28;20491;-34
2022/04/04 07:37:41;;;;;;;6.35;4.97;;;;;;;4.68;77.61;101184.13;5054742;28;20096;-34
2022/04/04 07:40:12;;;;;;;8.23;4.85;;;;;;;4.74;78.40;101167.34;5054696;28;20036;-34
2022/04/04 07:42:38;;;;;;;8.30;5.10;;;;;;;4.77;77.89;101171.47;5055569;28;20041;-34
2022/04/04 07:45:06;;;;;;;6.25;4.80;;;;;;;4.71;79.07;101140.91;5054615;28;20494;-34
2022/04/04 07:47:32;;;;;;;7.45;5.13;;;;;;;4.79;78.09;101145.34;5055150;28;20107;-34
2022/04/04 07:49:57;;;;;;;7.65;4.93;;;;;;;4.71;78.15;101135.56;5054478;28;20055;-34
2022/04/04 07:52:23;;;;;;;7.35;4.80;;;;;;;4.87;77.26;101134.50;5055146;28;20032;-34
2022/04/04 07:54:48;;;;;;;5.38;4.50;;;;;;;4.94;77.28;101130.09;5054758;28;20075;-34
2022/04/04 07:57:15;;;;;;;5.90;4.67;;;;;;;4.92;77.75;101118.72;5054652;28;20029;-34
2022/04/04 07:59:41;;;;;;;6.97;5.00;;;;;;;4.99;77.30;101110.78;5054576;28;20029;-34
2022/04/04 08:02:06;;;;;;;6.18;4.63;;;;;;;5.12;77.25;101114.44;5054024;28;20537;-34
2022/04/04 08:04:32;;;;;;;6.03;4.60;;;;;;;5.19;76.99;101116.34;5054885;28;20059;-35
2022/04/04 08:06:58;;;;;;;9.38;5.53;;;;;;;5.24;76.19;101109.41;5054930;28;20716;-35
2022/04/04 08:09:23;;;;;;;8.18;4.82;;;;;;;5.32;76.09;101109.31;5054631;28;20465;-35
2022/04/04 08:11:50;;;;;;;6.60;4.90;;;;;;;5.38;76.51;101096.97;5054701;28;20040;-35
2022/04/04 08:14:16;;;;;;;5.88;4.22;;;;;;;5.42;75.59;101091.03;5054210;28;20068;-35
2022/04/04 08:16:41;;;;;;;5.85;4.47;;;;;;;5.48;75.64;101094.81;5054290;28;20029;-35
2022/04/04 08:19:06;;;;;;;8.87;4.17;;;;;;;5.48;75.65;101069.84;5054197;28;20021;-34
2022/04/04 08:21:32;;;;;;;8.83;4.97;;;;;;;5.60;74.47;101076.34;5054667;28;20083;-34
2022/04/04 08:23:57;;;;;;;5.25;4.72;;;;;;;5.47;73.75;101044.03;5052913;28;20413;-35
2022/04/04 08:26:23;;;;;;;7.53;4.77;;;;;;;5.72;73.90;101082.84;5053536;28;20077;-35
2022/04/04 08:28:48;;;;;;;6.20;4.00;;;;;;;5.78;73.20;101079.38;5054263;28;20033;-35
2022/04/04 08:31:14;;;;;;;10.33;4.60;;;;;;;5.81;72.75;101060.22;5054080;28;20126;-35
2022/04/04 08:33:39;;;;;;;4.47;4.03;;;;;;;5.87;72.57;101046.03;5053967;28;20025;-34
2022/04/04 08:36:05;;;;;;;7.87;3.83;;;;;;;5.93;72.95;101082.03;5054090;28;20609;-35
2022/04/04 08:38:31;;;;;;;;;;;;;;;5.98;72.67;101054.59;5054300;28;20064;-35
2022/04/04 08:41:02;;;;;;;7.40;4.47;;;;;;;5.97;72.36;101048.41;5054542;28;19962;-35
2022/04/04 08:43:33;;;;;;;8.52;4.60;;;;;;;6.00;72.41;101031.06;5053088;28;20136;-34
2022/04/04 08:45:59;;;;;;;7.38;4.40;;;;;;;5.99;72.55;101027.53;5054294;28;20060;-35
2022/04/04 08:48:25;;;;;;;6.25;4.75;;;;;;;5.97;72.69;101039.53;5054115;28;20147;-35
2022/04/04 08:50:50;;;;;;;;;;;;;;;5.98;72.53;101039.31;5053345;28;20028;-35
2022/04/04 08:53:16;;;;;;;8.07;4.68;;;;;;;5.91;72.41;101019.63;5053225;28;19909;-35
2022/04/04 08:55:41;;;;;;;7.43;4.53;;;;;;;5.92;72.62;101038.25;5053351;28;20102;-35
2022/04/04 08:58:07;;;;;;;10.90;5.20;;;;;;;5.89;73.16;101018.97;5052885;28;20167;-36
2022/04/04 09:00:35;;;;;;;6.87;4.70;;;;;;;5.88;73.90;101025.38;5053691;28;20268;-35
2022/04/04 09:03:03;;;;;;;6.70;4.95;;;;;;;5.85;75.04;101018.53;5053365;28;20362;-35
2022/04/04 09:05:31;;;;;;;10.18;5.40;;;;;;;5.85;74.92;101023.06;5053630;28;20025;-35
2022/04/04 09:08:07;;;;;;;9.77;5.47;;;;;;;5.82;76.15;101005.53;5053324;28;20029;-36
2022/04/04 09:10:37;;;;;;;8.32;5.30;;;;;;;5.89;75.64;101016.28;5053201;28;20024;-35
2022/04/04 09:13:13;;;;;;;14.48;5.60;;;;;;;5.91;75.65;101014.25;5053384;28;20116;-35
2022/04/04 09:15:56;;;;;;;8.65;5.45;;;;;;;5.87;76.67;101004.94;5051848;28;20041;-35
2022/04/04 09:18:36;;;;;;;8.35;5.38;;;;;;;5.83;77.08;101007.19;5053053;28;20032;-35
2022/04/04 09:21:06;;;;;;;8.60;5.13;;;;;;;5.82;76.83;101005.53;5053674;28;20111;-35
2022/04/04 09:23:33;;;;;;;7.00;5.05;;;;;;;5.78;77.24;100993.50;5053350;28;20120;-35
2022/04/04 09:26:00;;;;;;;8.43;5.38;;;;;;;5.85;77.64;100999.75;5053302;28;20028;-39
2022/04/04 09:28:26;;;;;;;8.57;5.47;;;;;;;5.86;77.85;101012.16;5053459;28;20029;-34
2022/04/04 09:31:07;;;;;;;6.93;5.15;;;;;;;5.85;78.05;100998.91;5052851;28;20040;-34
2022/04/04 09:33:39;;;;;;;9.05;5.25;;;;;;;5.83;78.53;100990.25;5051850;28;20036;-35
2022/04/04 09:36:06;;;;;;;8.30;5.25;;;;;;;5.81;80.15;100973.53;5052603;28;20481;-35
2022/04/04 09:38:34;;;;;;;7.30;5.78;;;;;;;5.77;79.80;100978.44;5052586;28;20036;-35
2022/04/04 09:41:14;;;;;;;10.07;5.47;;;;;;;5.78;80.93;100993.50;5053520;28;20120;-35
2022/04/04 09:43:59;;;;;;;7.35;5.10;;;;;;;5.72;81.43;100982.75;5053665;28;20045;-35
2022/04/04 09:46:33;;;;;;;8.57;5.93;;;;;;;5.67;82.81;100983.34;5053343;28;20102;-35
2022/04/04 09:49:04;;;;;;;8.35;5.80;;;;;;;5.52;83.00;100961.97;5052839;28;20466;-34
2022/04/04 09:52:08;;;;;;;8.13;5.40;;;;;;;5.59;82.77;100984.28;5053073;28;20063;-34
2022/04/04 09:54:42;;;;;;;8.55;6.13;;;;;;;5.58;83.10;100973.78;5050879;28;20025;-35
2022/04/04 09:57:16;;;;;;;6.32;5.15;;;;;;;5.57;84.03;100967.56;5050493;28;20091;-35
2022/04/04 09:59:42;;;;;;;11.73;6.10;;;;;;;5.55;84.86;100971.47;5050798;28;20044;-35
2022/04/04 10:02:09;;;;;;;8.75;5.60;;;;;;;5.51;83.69;100971.00;5050991;28;20559;-35
2022/04/04 10:04:36;;;;;;;8.00;5.97;;;;;;;5.51;84.84;100959.47;5050312;28;20053;-35
2022/04/04 10:07:05;;;;;;;8.48;6.03;;;;;;;5.50;85.71;100965.84;5051038;28;20041;-34
2022/04/04 10:09:32;;;;;;;7.28;5.45;;;;;;;5.49;86.38;100951.63;5050447;28;20031;-34
2022/04/04 10:11:58;;;;;;;8.13;5.90;;;;;;;5.50;85.96;100952.44;5050240;28;20047;-34
2022/04/04 10:14:24;;;;;;;8.63;6.40;;;;;;;5.48;86.17;100935.72;5050794;28;20108;-34
2022/04/04 10:16:53;;;;;;;8.32;6.57;;;;;;;5.54;86.45;100943.00;5033722;28;20155;-35
2022/04/04 10:19:19;;;;;;;11.43;6.20;;;;;;;5.58;86.01;100941.56;5050267;28;20040;-35
2022/04/04 10:21:44;;;;;;;8.27;6.03;;;;;;;5.60;86.63;100928.78;5050245;28;20032;-35
2022/04/04 10:24:11;;;;;;;9.83;6.83;;;;;;;5.66;87.92;100954.81;5050193;28;20120;-35
2022/04/04 10:26:37;;;;;;;7.25;6.03;;;;;;;5.57;88.01;100924.66;5052427;28;20032;-35
2022/04/04 10:29:16;;;;;;;9.05;5.60;;;;;;;5.70;88.16;100942.69;5052895;28;20025;-35
2022/04/04 10:31:43;;;;;;;7.78;6.13;;;;;;;5.73;89.29;100936.09;5052431;28;20033;-34
2022/04/04 10:34:14;;;;;;;8.25;6.25;;;;;;;5.76;90.66;100930.31;5052334;28;20033;-34
2022/04/04 10:37:06;;;;;;;10.02;5.57;;;;;;;5.68;90.09;100923.28;5052248;28;20033;-34
2022/04/04 10:39:36;;;;;;;12.10;6.65;;;;;;;5.73;91.01;100941.47;5053120;28;20099;-34
2022/04/04 10:42:22;;;;;;;7.45;6.20;;;;;;;5.64;91.09;100927.38;5052660;28;20053;-35
2022/04/04 10:44:49;;;;;;;9.75;6.25;;;;;;;5.63;91.92;100926.53;5052655;28;20095;-35
2022/04/04 10:47:24;;;;;;;8.60;6.70;;;;;;;5.61;93.19;100930.44;5052269;28;20365;-35
2022/04/04 10:49:50;;;;;;;9.13;6.57;;;;;;;5.58;93.52;100917.44;5053716;28;20040;-34
2022/04/04 10:52:19;;;;;;;6.78;5.93;;;;;;;5.54;93.66;100910.78;5056579;28;20067;-34
2022/04/04 10:54:45;;;;;;;8.07;6.22;;;;;;;5.58;94.30;100914.75;5055992;28;20074;-34
2022/04/04 10:57:18;;;;;;;7.38;6.40;;;;;;;5.54;95.20;100900.06;5056201;28;20108;-35
2022/04/04 10:59:48;;;;;;;7.45;6.15;;;;;;;5.52;94.74;100902.97;5055713;28;20480;-34
2022/04/04 11:02:18;;;;;;;7.43;6.65;;;;;;;5.48;96.24;100890.13;5055519;28;20123;-35
2022/04/04 11:07:39;;;;;;;12.73;7.63;;;;;;;5.58;97.87;100895.97;5056066;28;20040;-34
2022/04/04 11:10:06;;;;;;;7.05;5.93;;;;;;;5.51;96.32;100885.19;5055728;28;20024;-35
2022/04/04 11:13:07;;;;;;;8.43;6.32;;;;;;;5.57;98.00;100889.78;5055855;28;20462;-35
2022/04/04 11:15:43;;;;;;;11.38;7.25;;;;;;;5.52;98.12;100889.53;5055330;28;20025;-35
2022/04/04 11:18:09;;;;;;;7.25;6.47;;;;;;;5.50;99.08;100886.22;5055483;28;20033;-35
2022/04/04 11:20:36;;;;;;;;;;;;;;;5.51;98.50;100889.72;5056684;28;20025;-35
2022/04/04 11:23:09;;;;;;;7.40;6.32;;;;;;;5.43;99.08;100874.63;5055062;28;19920;-35
2022/04/04 11:25:37;;;;;;;5.47;4.97;;;;;;;5.46;99.08;100882.25;5054562;28;20086;-35
2022/04/04 11:28:04;;;;;;;7.15;5.93;;;;;;;5.35;100.00;100867.56;5054936;28;20036;-35
2022/04/04 11:30:29;;;;;;;5.80;5.30;;;;;;;5.41;99.49;100884.69;5055191;28;20029;-34
2022/04/04 11:32:57;;;;;;;7.22;5.35;;;;;;;5.39;99.81;100882.22;5054107;28;20053;-35
2022/04/04 11:35:32;;;;;;;5.72;5.22;;;;;;;5.40;100.00;100864.28;5055073;28;20484;-35
2022/04/04 11:38:05;;;;;;;5.85;4.75;;;;;;;5.39;100.00;100865.31;5054865;28;20377;-34
2022/04/04 11:40:37;;;;;;;8.02;5.30;;;;;;;5.34;100.00;100863.22;5053702;28;20335;-34
2022/04/04 11:43:06;;;;;;;5.68;5.18;;;;;;;5.28;99.52;100858.66;5055370;28;20107;-34